sensor_id;sensor_type;location;lat;lon;timestamp;P1;durP1;ratioP1;P2;durP2;ratioP2
9461;SDS011;4769;42.660;23.262;2023-04-30T00:02:09;6.63;;;4.40;;
9461;SDS011;4769;42.660;23.262;2023-04-30T00:04:37;7.23;;;4.67;;
9461;SDS011;4769;42.660;23.262;2023-04-30T00:07:03;7.57;;;4.80;;
9461;SDS011;4769;42.660;23.262;2023-04-30T00:09:28;5.97;;;5.10;;
9461;SDS011;4769;42.660;23.262;2023-04-30T00:11:54;6.57;;;4.70;;
9461;SDS011;4769;42.660;23.262;2023-04-30T00:14:20;7.73;;;5.60;;
9461;SDS011;4769;42.660;23.262;2023-04-30T00:16:46;7.90;;;4.87;;
9461;SDS011;4769;42.660;23.262;2023-04-30T00:19:11;6.70;;;5.17;;
9461;SDS011;4769;42.660;23.262;2023-04-30T00:21:40;7.73;;;5.40;;
9461;SDS011;4769;42.660;23.262;2023-04-30T00:24:05;7.00;;;5.17;;
9461;SDS011;4769;42.660;23.262;2023-04-30T00:26:31;8.17;;;5.80;;
9461;SDS011;4769;42.660;23.262;2023-04-30T00:28:57;8.83;;;5.50;;
9461;SDS011;4769;42.660;23.262;2023-04-30T00:31:22;9.20;;;6.00;;
9461;SDS011;4769;42.660;23.262;2023-04-30T00:33:48;7.80;;;5.50;;
9461;SDS011;4769;42.660;23.262;2023-04-30T00:36:14;5.40;;;4.90;;
9461;SDS011;4769;42.660;23.262;2023-04-30T00:38:42;11.30;;;5.87;;
9461;SDS011;4769;42.660;23.262;2023-04-30T00:41:08;7.07;;;5.00;;
9461;SDS011;4769;42.660;23.262;2023-04-30T00:43:34;6.83;;;5.73;;
9461;SDS011;4769;42.660;23.262;2023-04-30T00:46:00;7.00;;;5.03;;
9461;SDS011;4769;42.660;23.262;2023-04-30T00:48:25;6.67;;;4.83;;
9461;SDS011;4769;42.660;23.262;2023-04-30T00:50:51;6.57;;;4.97;;
9461;SDS011;4769;42.660;23.262;2023-04-30T00:53:17;6.30;;;4.80;;
9461;SDS011;4769;42.660;23.262;2023-04-30T00:55:46;7.07;;;5.17;;
9461;SDS011;4769;42.660;23.262;2023-04-30T00:58:12;6.73;;;4.77;;
9461;SDS011;4769;42.660;23.262;2023-04-30T01:00:39;6.53;;;5.07;;
9461;SDS011;4769;42.660;23.262;2023-04-30T01:03:05;8.93;;;5.70;;
9461;SDS011;4769;42.660;23.262;2023-04-30T01:05:31;8.23;;;5.53;;
9461;SDS011;4769;42.660;23.262;2023-04-30T01:07:56;6.80;;;5.17;;
9461;SDS011;4769;42.660;23.262;2023-04-30T01:10:23;7.80;;;4.90;;
9461;SDS011;4769;42.660;23.262;2023-04-30T01:13:00;8.17;;;5.43;;
9461;SDS011;4769;42.660;23.262;2023-04-30T01:15:32;5.97;;;5.03;;
9461;SDS011;4769;42.660;23.262;2023-04-30T01:18:08;7.83;;;5.13;;
9461;SDS011;4769;42.660;23.262;2023-04-30T01:20:41;6.60;;;4.73;;
9461;SDS011;4769;42.660;23.262;2023-04-30T01:23:13;6.83;;;5.00;;
9461;SDS011;4769;42.660;23.262;2023-04-30T01:25:52;7.10;;;5.27;;
9461;SDS011;4769;42.660;23.262;2023-04-30T01:28:37;6.50;;;5.40;;
9461;SDS011;4769;42.660;23.262;2023-04-30T01:31:10;8.47;;;5.03;;
9461;SDS011;4769;42.660;23.262;2023-04-30T01:33:37;7.77;;;5.77;;
9461;SDS011;4769;42.660;23.262;2023-04-30T01:36:11;7.20;;;5.13;;
9461;SDS011;4769;42.660;23.262;2023-04-30T01:38:57;7.63;;;4.97;;
9461;SDS011;4769;42.660;23.262;2023-04-30T01:41:34;7.37;;;4.83;;
9461;SDS011;4769;42.660;23.262;2023-04-30T01:44:16;7.10;;;5.60;;
9461;SDS011;4769;42.660;23.262;2023-04-30T01:46:55;5.93;;;5.33;;
9461;SDS011;4769;42.660;23.262;2023-04-30T01:49:29;6.93;;;5.30;;
9461;SDS011;4769;42.660;23.262;2023-04-30T01:52:03;7.70;;;5.50;;
9461;SDS011;4769;42.660;23.262;2023-04-30T01:54:44;9.00;;;6.40;;
9461;SDS011;4769;42.660;23.262;2023-04-30T01:57:15;7.27;;;4.90;;
9461;SDS011;4769;42.660;23.262;2023-04-30T01:59:48;8.27;;;5.67;;
9461;SDS011;4769;42.660;23.262;2023-04-30T02:02:14;6.83;;;5.23;;
9461;SDS011;4769;42.660;23.262;2023-04-30T02:04:39;7.83;;;6.03;;
9461;SDS011;4769;42.660;23.262;2023-04-30T02:07:05;7.57;;;5.63;;
9461;SDS011;4769;42.660;23.262;2023-04-30T02:09:31;8.40;;;6.20;;
9461;SDS011;4769;42.660;23.262;2023-04-30T02:11:56;7.90;;;5.23;;
9461;SDS011;4769;42.660;23.262;2023-04-30T02:14:22;7.53;;;5.33;;
9461;SDS011;4769;42.660;23.262;2023-04-30T02:16:50;6.83;;;5.60;;
9461;SDS011;4769;42.660;23.262;2023-04-30T02:19:16;8.13;;;6.10;;
9461;SDS011;4769;42.660;23.262;2023-04-30T02:36:06;9.25;;;7.80;;
9461;SDS011;4769;42.660;23.262;2023-04-30T02:38:31;9.05;;;6.53;;
9461;SDS011;4769;42.660;23.262;2023-04-30T02:40:57;9.20;;;7.10;;
9461;SDS011;4769;42.660;23.262;2023-04-30T02:43:23;9.77;;;7.37;;
9461;SDS011;4769;42.660;23.262;2023-04-30T02:45:48;7.33;;;6.63;;
9461;SDS011;4769;42.660;23.262;2023-04-30T02:48:14;7.70;;;6.87;;
9461;SDS011;4769;42.660;23.262;2023-04-30T02:50:40;7.87;;;6.70;;
9461;SDS011;4769;42.660;23.262;2023-04-30T02:53:08;8.30;;;7.27;;
9461;SDS011;4769;42.660;23.262;2023-04-30T02:55:34;9.73;;;6.43;;
9461;SDS011;4769;42.660;23.262;2023-04-30T02:58:00;8.50;;;7.10;;
9461;SDS011;4769;42.660;23.262;2023-04-30T03:00:25;10.73;;;7.07;;
9461;SDS011;4769;42.660;23.262;2023-04-30T03:02:51;9.43;;;7.00;;
9461;SDS011;4769;42.660;23.262;2023-04-30T03:05:17;10.33;;;6.47;;
9461;SDS011;4769;42.660;23.262;2023-04-30T03:07:43;8.80;;;7.40;;
9461;SDS011;4769;42.660;23.262;2023-04-30T03:10:11;8.53;;;7.30;;
9461;SDS011;4769;42.660;23.262;2023-04-30T03:12:37;8.43;;;6.70;;
9461;SDS011;4769;42.660;23.262;2023-04-30T03:15:06;9.13;;;7.10;;
9461;SDS011;4769;42.660;23.262;2023-04-30T03:17:33;10.73;;;6.83;;
9461;SDS011;4769;42.660;23.262;2023-04-30T03:19:58;9.80;;;7.47;;
9461;SDS011;4769;42.660;23.262;2023-04-30T03:22:24;10.03;;;7.37;;
9461;SDS011;4769;42.660;23.262;2023-04-30T03:24:50;10.40;;;7.33;;
9461;SDS011;4769;42.660;23.262;2023-04-30T03:27:18;11.57;;;8.33;;
9461;SDS011;4769;42.660;23.262;2023-04-30T03:29:44;11.33;;;9.27;;
9461;SDS011;4769;42.660;23.262;2023-04-30T03:32:09;14.37;;;9.20;;
9461;SDS011;4769;42.660;23.262;2023-04-30T03:34:35;15.60;;;10.20;;
9461;SDS011;4769;42.660;23.262;2023-04-30T03:37:02;17.00;;;10.57;;
9461;SDS011;4769;42.660;23.262;2023-04-30T03:39:28;17.07;;;10.77;;
9461;SDS011;4769;42.660;23.262;2023-04-30T03:41:53;16.37;;;10.63;;
9461;SDS011;4769;42.660;23.262;2023-04-30T03:44:22;14.57;;;10.07;;
9461;SDS011;4769;42.660;23.262;2023-04-30T03:46:47;11.00;;;9.17;;
9461;SDS011;4769;42.660;23.262;2023-04-30T03:49:13;11.53;;;8.90;;
9461;SDS011;4769;42.660;23.262;2023-04-30T03:51:39;15.00;;;9.10;;
9461;SDS011;4769;42.660;23.262;2023-04-30T03:54:05;11.70;;;9.00;;
9461;SDS011;4769;42.660;23.262;2023-04-30T03:56:30;10.40;;;9.13;;
9461;SDS011;4769;42.660;23.262;2023-04-30T03:58:56;14.37;;;10.03;;
9461;SDS011;4769;42.660;23.262;2023-04-30T04:01:25;13.60;;;9.20;;
9461;SDS011;4769;42.660;23.262;2023-04-30T04:03:51;12.30;;;9.33;;
9461;SDS011;4769;42.660;23.262;2023-04-30T04:06:17;13.53;;;9.57;;
9461;SDS011;4769;42.660;23.262;2023-04-30T04:08:43;12.43;;;10.00;;
9461;SDS011;4769;42.660;23.262;2023-04-30T04:11:09;12.40;;;9.60;;
9461;SDS011;4769;42.660;23.262;2023-04-30T04:13:35;14.00;;;10.00;;
9461;SDS011;4769;42.660;23.262;2023-04-30T04:16:00;14.57;;;10.20;;
9461;SDS011;4769;42.660;23.262;2023-04-30T04:18:29;16.73;;;9.97;;
9461;SDS011;4769;42.660;23.262;2023-04-30T04:20:54;14.77;;;10.50;;
9461;SDS011;4769;42.660;23.262;2023-04-30T04:23:20;16.20;;;10.30;;
9461;SDS011;4769;42.660;23.262;2023-04-30T04:25:46;17.70;;;9.67;;
9461;SDS011;4769;42.660;23.262;2023-04-30T04:28:12;14.17;;;10.07;;
9461;SDS011;4769;42.660;23.262;2023-04-30T04:30:38;13.73;;;9.57;;
9461;SDS011;4769;42.660;23.262;2023-04-30T04:33:04;15.07;;;10.60;;
9461;SDS011;4769;42.660;23.262;2023-04-30T04:35:32;21.60;;;10.50;;
9461;SDS011;4769;42.660;23.262;2023-04-30T04:37:58;15.10;;;9.50;;
9461;SDS011;4769;42.660;23.262;2023-04-30T04:40:24;15.13;;;8.90;;
9461;SDS011;4769;42.660;23.262;2023-04-30T04:42:50;16.17;;;10.50;;
9461;SDS011;4769;42.660;23.262;2023-04-30T04:45:15;13.07;;;10.03;;
9461;SDS011;4769;42.660;23.262;2023-04-30T04:47:41;15.70;;;10.63;;
9461;SDS011;4769;42.660;23.262;2023-04-30T04:50:07;18.83;;;11.33;;
9461;SDS011;4769;42.660;23.262;2023-04-30T04:52:36;22.70;;;12.37;;
9461;SDS011;4769;42.660;23.262;2023-04-30T04:55:03;14.90;;;11.37;;
9461;SDS011;4769;42.660;23.262;2023-04-30T04:57:29;17.53;;;11.70;;
9461;SDS011;4769;42.660;23.262;2023-04-30T04:59:55;16.77;;;12.17;;
9461;SDS011;4769;42.660;23.262;2023-04-30T05:02:21;17.83;;;12.07;;
9461;SDS011;4769;42.660;23.262;2023-04-30T05:04:46;14.97;;;12.23;;
9461;SDS011;4769;42.660;23.262;2023-04-30T05:07:12;15.60;;;11.57;;
9461;SDS011;4769;42.660;23.262;2023-04-30T05:09:40;15.60;;;11.47;;
9461;SDS011;4769;42.660;23.262;2023-04-30T05:12:06;15.85;;;11.20;;
9461;SDS011;4769;42.660;23.262;2023-04-30T05:14:32;15.53;;;12.10;;
9461;SDS011;4769;42.660;23.262;2023-04-30T05:16:57;17.57;;;11.83;;
9461;SDS011;4769;42.660;23.262;2023-04-30T05:19:23;15.25;;;11.52;;
9461;SDS011;4769;42.660;23.262;2023-04-30T05:21:49;15.43;;;11.38;;
9461;SDS011;4769;42.660;23.262;2023-04-30T05:24:15;17.20;;;11.65;;
9461;SDS011;4769;42.660;23.262;2023-04-30T05:26:43;17.93;;;12.30;;
9461;SDS011;4769;42.660;23.262;2023-04-30T05:29:09;15.35;;;11.70;;
9461;SDS011;4769;42.660;23.262;2023-04-30T05:31:34;18.55;;;12.68;;
9461;SDS011;4769;42.660;23.262;2023-04-30T05:34:00;18.42;;;12.95;;
9461;SDS011;4769;42.660;23.262;2023-04-30T05:36:26;18.48;;;13.70;;
9461;SDS011;4769;42.660;23.262;2023-04-30T05:38:52;15.50;;;13.40;;
9461;SDS011;4769;42.660;23.262;2023-04-30T05:41:17;20.35;;;14.05;;
9461;SDS011;4769;42.660;23.262;2023-04-30T05:43:46;14.18;;;12.57;;
9461;SDS011;4769;42.660;23.262;2023-04-30T05:46:11;18.00;;;13.52;;
9461;SDS011;4769;42.660;23.262;2023-04-30T05:48:37;20.55;;;13.23;;
9461;SDS011;4769;42.660;23.262;2023-04-30T05:51:03;15.40;;;12.05;;
9461;SDS011;4769;42.660;23.262;2023-04-30T05:53:29;18.42;;;12.95;;
9461;SDS011;4769;42.660;23.262;2023-04-30T05:55:55;16.05;;;13.35;;
9461;SDS011;4769;42.660;23.262;2023-04-30T05:58:20;17.38;;;13.00;;
9461;SDS011;4769;42.660;23.262;2023-04-30T06:00:50;15.98;;;13.68;;
9461;SDS011;4769;42.660;23.262;2023-04-30T06:03:16;19.77;;;14.23;;
9461;SDS011;4769;42.660;23.262;2023-04-30T06:05:42;23.98;;;15.55;;
9461;SDS011;4769;42.660;23.262;2023-04-30T06:08:11;18.17;;;13.23;;
9461;SDS011;4769;42.660;23.262;2023-04-30T06:10:36;14.35;;;12.60;;
9461;SDS011;4769;42.660;23.262;2023-04-30T06:13:02;17.10;;;12.98;;
9461;SDS011;4769;42.660;23.262;2023-04-30T06:15:28;18.08;;;13.70;;
9461;SDS011;4769;42.660;23.262;2023-04-30T06:17:57;21.67;;;13.27;;
9461;SDS011;4769;42.660;23.262;2023-04-30T06:20:22;18.33;;;12.05;;
9461;SDS011;4769;42.660;23.262;2023-04-30T06:22:48;16.85;;;12.93;;
9461;SDS011;4769;42.660;23.262;2023-04-30T06:25:14;16.50;;;13.40;;
9461;SDS011;4769;42.660;23.262;2023-04-30T06:27:40;15.27;;;13.30;;
9461;SDS011;4769;42.660;23.262;2023-04-30T06:30:06;18.73;;;12.55;;
9461;SDS011;4769;42.660;23.262;2023-04-30T06:32:33;18.95;;;13.20;;
9461;SDS011;4769;42.660;23.262;2023-04-30T06:35:01;21.13;;;14.82;;
9461;SDS011;4769;42.660;23.262;2023-04-30T06:37:27;17.45;;;14.25;;
9461;SDS011;4769;42.660;23.262;2023-04-30T06:39:52;18.58;;;14.35;;
9461;SDS011;4769;42.660;23.262;2023-04-30T06:42:18;18.33;;;14.30;;
9461;SDS011;4769;42.660;23.262;2023-04-30T06:44:44;19.17;;;13.70;;
9461;SDS011;4769;42.660;23.262;2023-04-30T06:47:09;20.60;;;13.73;;
9461;SDS011;4769;42.660;23.262;2023-04-30T06:49:35;18.20;;;13.68;;
9461;SDS011;4769;42.660;23.262;2023-04-30T06:52:03;18.45;;;13.52;;
9461;SDS011;4769;42.660;23.262;2023-04-30T06:54:29;18.90;;;14.13;;
9461;SDS011;4769;42.660;23.262;2023-04-30T06:56:55;16.40;;;12.80;;
9461;SDS011;4769;42.660;23.262;2023-04-30T06:59:20;16.92;;;12.27;;
9461;SDS011;4769;42.660;23.262;2023-04-30T07:01:46;16.75;;;13.55;;
9461;SDS011;4769;42.660;23.262;2023-04-30T07:04:12;19.05;;;12.77;;
9461;SDS011;4769;42.660;23.262;2023-04-30T07:06:38;16.40;;;14.38;;
9461;SDS011;4769;42.660;23.262;2023-04-30T07:09:06;16.73;;;13.95;;
9461;SDS011;4769;42.660;23.262;2023-04-30T07:11:32;14.55;;;12.13;;
9461;SDS011;4769;42.660;23.262;2023-04-30T07:13:57;15.70;;;12.23;;
9461;SDS011;4769;42.660;23.262;2023-04-30T07:16:23;16.10;;;11.25;;
9461;SDS011;4769;42.660;23.262;2023-04-30T07:18:49;12.40;;;8.38;;
9461;SDS011;4769;42.660;23.262;2023-04-30T07:21:15;11.73;;;9.60;;
9461;SDS011;4769;42.660;23.262;2023-04-30T07:23:41;12.13;;;9.70;;
9461;SDS011;4769;42.660;23.262;2023-04-30T07:26:09;14.05;;;10.07;;
9461;SDS011;4769;42.660;23.262;2023-04-30T07:28:35;13.40;;;10.25;;
9461;SDS011;4769;42.660;23.262;2023-04-30T07:31:00;13.52;;;9.30;;
9461;SDS011;4769;42.660;23.262;2023-04-30T07:33:26;14.80;;;9.40;;
9461;SDS011;4769;42.660;23.262;2023-04-30T07:35:52;12.95;;;8.95;;
9461;SDS011;4769;42.660;23.262;2023-04-30T07:38:17;10.25;;;8.00;;
9461;SDS011;4769;42.660;23.262;2023-04-30T07:40:43;12.23;;;7.38;;
9461;SDS011;4769;42.660;23.262;2023-04-30T07:43:11;10.95;;;8.18;;
9461;SDS011;4769;42.660;23.262;2023-04-30T07:45:37;15.90;;;8.75;;
9461;SDS011;4769;42.660;23.262;2023-04-30T07:48:03;11.82;;;7.20;;
9461;SDS011;4769;42.660;23.262;2023-04-30T07:50:29;12.60;;;9.27;;
9461;SDS011;4769;42.660;23.262;2023-04-30T07:52:55;14.13;;;7.50;;
9461;SDS011;4769;42.660;23.262;2023-04-30T07:55:21;12.90;;;7.45;;
9461;SDS011;4769;42.660;23.262;2023-04-30T07:57:47;8.48;;;6.65;;
9461;SDS011;4769;42.660;23.262;2023-04-30T08:00:15;9.32;;;6.00;;
9461;SDS011;4769;42.660;23.262;2023-04-30T08:02:41;9.52;;;5.80;;
9461;SDS011;4769;42.660;23.262;2023-04-30T08:05:07;9.02;;;5.13;;
9461;SDS011;4769;42.660;23.262;2023-04-30T08:07:33;9.93;;;5.22;;
9461;SDS011;4769;42.660;23.262;2023-04-30T08:09:59;11.40;;;5.72;;
9461;SDS011;4769;42.660;23.262;2023-04-30T08:12:25;9.30;;;4.65;;
9461;SDS011;4769;42.660;23.262;2023-04-30T08:14:58;7.97;;;5.38;;
9461;SDS011;4769;42.660;23.262;2023-04-30T08:17:26;6.10;;;5.07;;
9461;SDS011;4769;42.660;23.262;2023-04-30T08:19:52;6.75;;;5.22;;
9461;SDS011;4769;42.660;23.262;2023-04-30T08:22:18;7.07;;;5.10;;
9461;SDS011;4769;42.660;23.262;2023-04-30T08:24:44;5.13;;;4.43;;
9461;SDS011;4769;42.660;23.262;2023-04-30T08:27:09;9.90;;;5.40;;
9461;SDS011;4769;42.660;23.262;2023-04-30T08:29:35;7.88;;;5.50;;
9461;SDS011;4769;42.660;23.262;2023-04-30T08:32:01;5.43;;;4.43;;
9461;SDS011;4769;42.660;23.262;2023-04-30T08:34:30;6.95;;;4.53;;
9461;SDS011;4769;42.660;23.262;2023-04-30T08:36:56;5.88;;;4.50;;
9461;SDS011;4769;42.660;23.262;2023-04-30T08:39:24;8.40;;;4.70;;
9461;SDS011;4769;42.660;23.262;2023-04-30T08:41:51;8.70;;;4.80;;
9461;SDS011;4769;42.660;23.262;2023-04-30T08:44:19;4.90;;;4.13;;
9461;SDS011;4769;42.660;23.262;2023-04-30T08:46:47;7.03;;;4.20;;
9461;SDS011;4769;42.660;23.262;2023-04-30T08:49:14;7.47;;;4.50;;
9461;SDS011;4769;42.660;23.262;2023-04-30T08:51:43;9.15;;;4.70;;
9461;SDS011;4769;42.660;23.262;2023-04-30T08:54:10;8.75;;;5.43;;
9461;SDS011;4769;42.660;23.262;2023-04-30T08:56:37;12.05;;;5.22;;
9461;SDS011;4769;42.660;23.262;2023-04-30T08:59:03;12.15;;;6.05;;
9461;SDS011;4769;42.660;23.262;2023-04-30T09:01:29;9.27;;;4.93;;
9461;SDS011;4769;42.660;23.262;2023-04-30T09:03:54;7.72;;;4.50;;
9461;SDS011;4769;42.660;23.262;2023-04-30T09:06:20;12.15;;;4.75;;
9461;SDS011;4769;42.660;23.262;2023-04-30T09:08:48;7.80;;;4.57;;
9461;SDS011;4769;42.660;23.262;2023-04-30T09:11:21;4.50;;;3.67;;
9461;SDS011;4769;42.660;23.262;2023-04-30T09:13:49;5.57;;;3.58;;
9461;SDS011;4769;42.660;23.262;2023-04-30T09:16:15;5.00;;;3.85;;
9461;SDS011;4769;42.660;23.262;2023-04-30T09:18:41;4.85;;;4.20;;
9461;SDS011;4769;42.660;23.262;2023-04-30T09:21:07;4.38;;;4.00;;
9461;SDS011;4769;42.660;23.262;2023-04-30T09:23:32;4.05;;;3.38;;
9461;SDS011;4769;42.660;23.262;2023-04-30T09:26:01;4.15;;;3.78;;
9461;SDS011;4769;42.660;23.262;2023-04-30T09:28:27;5.38;;;4.05;;
9461;SDS011;4769;42.660;23.262;2023-04-30T09:30:52;4.72;;;3.50;;
9461;SDS011;4769;42.660;23.262;2023-04-30T09:33:20;6.90;;;3.90;;
9461;SDS011;4769;42.660;23.262;2023-04-30T09:35:46;5.05;;;4.15;;
9461;SDS011;4769;42.660;23.262;2023-04-30T09:41:01;4.55;;;3.97;;
9461;SDS011;4769;42.660;23.262;2023-04-30T09:43:27;4.35;;;3.95;;
9461;SDS011;4769;42.660;23.262;2023-04-30T09:45:53;4.28;;;3.85;;
9461;SDS011;4769;42.660;23.262;2023-04-30T09:48:20;4.47;;;3.60;;
9461;SDS011;4769;42.660;23.262;2023-04-30T09:50:46;5.13;;;3.85;;
9461;SDS011;4769;42.660;23.262;2023-04-30T09:53:13;4.22;;;3.83;;
9461;SDS011;4769;42.660;23.262;2023-04-30T09:55:41;4.60;;;3.42;;
9461;SDS011;4769;42.660;23.262;2023-04-30T09:58:11;4.03;;;3.65;;
9461;SDS011;4769;42.660;23.262;2023-04-30T10:00:38;4.18;;;3.78;;
9461;SDS011;4769;42.660;23.262;2023-04-30T10:03:05;4.45;;;4.05;;
9461;SDS011;4769;42.660;23.262;2023-04-30T10:05:31;3.78;;;3.38;;
9461;SDS011;4769;42.660;23.262;2023-04-30T10:08:01;4.82;;;3.22;;
9461;SDS011;4769;42.660;23.262;2023-04-30T10:10:27;3.70;;;3.40;;
9461;SDS011;4769;42.660;23.262;2023-04-30T10:12:57;3.88;;;3.58;;
9461;SDS011;4769;42.660;23.262;2023-04-30T10:15:31;3.38;;;3.17;;
9461;SDS011;4769;42.660;23.262;2023-04-30T10:18:04;3.80;;;3.50;;
9461;SDS011;4769;42.660;23.262;2023-04-30T10:20:34;4.72;;;3.83;;
9461;SDS011;4769;42.660;23.262;2023-04-30T10:23:01;6.53;;;3.45;;
9461;SDS011;4769;42.660;23.262;2023-04-30T10:25:27;4.10;;;3.70;;
9461;SDS011;4769;42.660;23.262;2023-04-30T10:27:53;4.65;;;4.18;;
9461;SDS011;4769;42.660;23.262;2023-04-30T10:30:19;4.60;;;4.15;;
9461;SDS011;4769;42.660;23.262;2023-04-30T10:32:50;5.22;;;4.72;;
9461;SDS011;4769;42.660;23.262;2023-04-30T10:35:22;5.78;;;5.18;;
9461;SDS011;4769;42.660;23.262;2023-04-30T10:37:52;8.27;;;5.10;;
9461;SDS011;4769;42.660;23.262;2023-04-30T10:40:22;5.82;;;5.32;;
9461;SDS011;4769;42.660;23.262;2023-04-30T10:42:52;5.78;;;5.28;;
9461;SDS011;4769;42.660;23.262;2023-04-30T10:45:18;5.75;;;5.18;;
9461;SDS011;4769;42.660;23.262;2023-04-30T10:48:03;7.47;;;5.70;;
9461;SDS011;4769;42.660;23.262;2023-04-30T10:50:30;5.93;;;5.30;;
9461;SDS011;4769;42.660;23.262;2023-04-30T10:53:00;4.63;;;4.10;;
9461;SDS011;4769;42.660;23.262;2023-04-30T10:55:28;4.53;;;3.70;;
9461;SDS011;4769;42.660;23.262;2023-04-30T10:57:56;4.97;;;3.85;;
9461;SDS011;4769;42.660;23.262;2023-04-30T11:00:24;5.15;;;4.65;;
9461;SDS011;4769;42.660;23.262;2023-04-30T11:02:52;6.38;;;4.78;;
9461;SDS011;4769;42.660;23.262;2023-04-30T11:05:24;4.93;;;4.10;;
9461;SDS011;4769;42.660;23.262;2023-04-30T11:07:58;4.50;;;4.10;;
9461;SDS011;4769;42.660;23.262;2023-04-30T11:10:25;3.22;;;2.92;;
9461;SDS011;4769;42.660;23.262;2023-04-30T11:12:55;3.10;;;2.90;;
9461;SDS011;4769;42.660;23.262;2023-04-30T11:15:23;3.80;;;3.10;;
9461;SDS011;4769;42.660;23.262;2023-04-30T11:17:50;5.97;;;3.95;;
9461;SDS011;4769;42.660;23.262;2023-04-30T11:20:23;4.75;;;3.65;;
9461;SDS011;4769;42.660;23.262;2023-04-30T11:25:38;4.25;;;3.85;;
9461;SDS011;4769;42.660;23.262;2023-04-30T11:28:04;5.55;;;3.60;;
9461;SDS011;4769;42.660;23.262;2023-04-30T11:30:31;3.92;;;3.60;;
9461;SDS011;4769;42.660;23.262;2023-04-30T11:32:58;4.63;;;3.78;;
9461;SDS011;4769;42.660;23.262;2023-04-30T11:35:27;5.28;;;3.55;;
9461;SDS011;4769;42.660;23.262;2023-04-30T11:37:53;4.00;;;3.10;;
9461;SDS011;4769;42.660;23.262;2023-04-30T11:40:21;4.45;;;3.42;;
9461;SDS011;4769;42.660;23.262;2023-04-30T11:42:47;3.60;;;3.30;;
9461;SDS011;4769;42.660;23.262;2023-04-30T11:45:13;7.93;;;3.80;;
9461;SDS011;4769;42.660;23.262;2023-04-30T11:47:41;4.43;;;3.88;;
9461;SDS011;4769;42.660;23.262;2023-04-30T11:50:08;7.10;;;4.13;;
9461;SDS011;4769;42.660;23.262;2023-04-30T11:52:37;4.53;;;3.78;;
9461;SDS011;4769;42.660;23.262;2023-04-30T11:55:07;5.75;;;3.63;;
9461;SDS011;4769;42.660;23.262;2023-04-30T11:57:40;4.50;;;3.50;;
9461;SDS011;4769;42.660;23.262;2023-04-30T12:00:09;3.83;;;3.30;;
9461;SDS011;4769;42.660;23.262;2023-04-30T12:02:36;4.82;;;3.08;;
9461;SDS011;4769;42.660;23.262;2023-04-30T12:05:02;4.40;;;3.58;;
9461;SDS011;4769;42.660;23.262;2023-04-30T12:07:28;3.47;;;3.05;;
9461;SDS011;4769;42.660;23.262;2023-04-30T12:09:57;6.32;;;3.22;;
9461;SDS011;4769;42.660;23.262;2023-04-30T12:12:26;3.70;;;3.40;;
9461;SDS011;4769;42.660;23.262;2023-04-30T12:14:52;6.32;;;3.20;;
9461;SDS011;4769;42.660;23.262;2023-04-30T12:17:29;4.38;;;3.42;;
9461;SDS011;4769;42.660;23.262;2023-04-30T12:19:55;4.10;;;3.58;;
9461;SDS011;4769;42.660;23.262;2023-04-30T12:22:21;3.80;;;3.50;;
9461;SDS011;4769;42.660;23.262;2023-04-30T12:24:47;3.97;;;3.63;;
9461;SDS011;4769;42.660;23.262;2023-04-30T12:27:16;3.78;;;3.42;;
9461;SDS011;4769;42.660;23.262;2023-04-30T12:29:42;4.97;;;3.80;;
9461;SDS011;4769;42.660;23.262;2023-04-30T12:32:08;3.55;;;3.25;;
9461;SDS011;4769;42.660;23.262;2023-04-30T12:34:34;4.97;;;3.00;;
9461;SDS011;4769;42.660;23.262;2023-04-30T12:37:02;3.45;;;2.97;;
9461;SDS011;4769;42.660;23.262;2023-04-30T12:39:32;4.65;;;2.95;;
9461;SDS011;4769;42.660;23.262;2023-04-30T12:41:59;3.58;;;3.20;;
9461;SDS011;4769;42.660;23.262;2023-04-30T12:44:27;5.00;;;3.28;;
9461;SDS011;4769;42.660;23.262;2023-04-30T12:46:53;3.60;;;3.20;;
9461;SDS011;4769;42.660;23.262;2023-04-30T12:49:23;3.20;;;2.90;;
9461;SDS011;4769;42.660;23.262;2023-04-30T12:51:49;3.13;;;2.83;;
9461;SDS011;4769;42.660;23.262;2023-04-30T12:54:23;4.03;;;2.90;;
9461;SDS011;4769;42.660;23.262;2023-04-30T12:56:56;4.40;;;2.97;;
9461;SDS011;4769;42.660;23.262;2023-04-30T12:59:23;4.10;;;3.25;;
9461;SDS011;4769;42.660;23.262;2023-04-30T13:01:51;3.97;;;3.33;;
9461;SDS011;4769;42.660;23.262;2023-04-30T13:04:17;5.47;;;3.50;;
9461;SDS011;4769;42.660;23.262;2023-04-30T13:06:43;3.72;;;3.25;;
9461;SDS011;4769;42.660;23.262;2023-04-30T13:09:08;3.50;;;3.20;;
9461;SDS011;4769;42.660;23.262;2023-04-30T13:11:34;3.10;;;2.80;;
9461;SDS011;4769;42.660;23.262;2023-04-30T13:14:00;7.20;;;3.63;;
9461;SDS011;4769;42.660;23.262;2023-04-30T13:16:25;4.20;;;3.80;;
9461;SDS011;4769;42.660;23.262;2023-04-30T13:18:54;4.22;;;3.72;;
9461;SDS011;4769;42.660;23.262;2023-04-30T13:21:19;3.90;;;3.35;;
9461;SDS011;4769;42.660;23.262;2023-04-30T13:23:45;4.18;;;3.30;;
9461;SDS011;4769;42.660;23.262;2023-04-30T13:26:11;3.28;;;2.97;;
9461;SDS011;4769;42.660;23.262;2023-04-30T13:28:36;3.30;;;3.00;;
9461;SDS011;4769;42.660;23.262;2023-04-30T13:31:02;4.90;;;3.15;;
9461;SDS011;4769;42.660;23.262;2023-04-30T13:33:28;3.50;;;3.00;;
9461;SDS011;4769;42.660;23.262;2023-04-30T13:35:56;3.22;;;2.92;;
9461;SDS011;4769;42.660;23.262;2023-04-30T13:38:22;3.13;;;2.85;;
9461;SDS011;4769;42.660;23.262;2023-04-30T13:40:48;4.93;;;3.33;;
9461;SDS011;4769;42.660;23.262;2023-04-30T13:43:13;3.47;;;3.17;;
9461;SDS011;4769;42.660;23.262;2023-04-30T13:45:39;3.45;;;3.13;;
9461;SDS011;4769;42.660;23.262;2023-04-30T13:48:05;4.13;;;2.83;;
9461;SDS011;4769;42.660;23.262;2023-04-30T13:50:31;3.72;;;3.00;;
9461;SDS011;4769;42.660;23.262;2023-04-30T13:52:59;5.30;;;3.22;;
9461;SDS011;4769;42.660;23.262;2023-04-30T13:55:25;3.67;;;2.75;;
9461;SDS011;4769;42.660;23.262;2023-04-30T13:57:50;3.45;;;2.70;;
9461;SDS011;4769;42.660;23.262;2023-04-30T14:00:16;3.13;;;2.92;;
9461;SDS011;4769;42.660;23.262;2023-04-30T14:02:43;2.90;;;2.70;;
9461;SDS011;4769;42.660;23.262;2023-04-30T14:05:09;3.63;;;2.83;;
9461;SDS011;4769;42.660;23.262;2023-04-30T14:07:34;3.58;;;2.92;;
9461;SDS011;4769;42.660;23.262;2023-04-30T14:10:03;3.67;;;3.00;;
9461;SDS011;4769;42.660;23.262;2023-04-30T14:12:29;3.58;;;3.00;;
9461;SDS011;4769;42.660;23.262;2023-04-30T14:14:55;3.65;;;3.03;;
9461;SDS011;4769;42.660;23.262;2023-04-30T14:17:21;5.32;;;3.15;;
9461;SDS011;4769;42.660;23.262;2023-04-30T14:19:47;3.90;;;3.25;;
9461;SDS011;4769;42.660;23.262;2023-04-30T14:22:13;3.50;;;3.05;;
9461;SDS011;4769;42.660;23.262;2023-04-30T14:24:39;6.43;;;3.20;;
9461;SDS011;4769;42.660;23.262;2023-04-30T14:27:07;3.72;;;3.30;;
9461;SDS011;4769;42.660;23.262;2023-04-30T14:29:33;2.90;;;2.70;;
9461;SDS011;4769;42.660;23.262;2023-04-30T14:31:59;3.55;;;3.15;;
9461;SDS011;4769;42.660;23.262;2023-04-30T14:34:24;3.50;;;3.20;;
9461;SDS011;4769;42.660;23.262;2023-04-30T14:36:50;3.50;;;3.20;;
9461;SDS011;4769;42.660;23.262;2023-04-30T14:39:16;3.33;;;2.90;;
9461;SDS011;4769;42.660;23.262;2023-04-30T14:41:42;4.40;;;2.85;;
9461;SDS011;4769;42.660;23.262;2023-04-30T14:44:10;2.75;;;2.45;;
9461;SDS011;4769;42.660;23.262;2023-04-30T14:46:36;3.05;;;2.60;;
9461;SDS011;4769;42.660;23.262;2023-04-30T14:49:01;3.15;;;2.85;;
9461;SDS011;4769;42.660;23.262;2023-04-30T14:51:27;2.70;;;2.30;;
9461;SDS011;4769;42.660;23.262;2023-04-30T14:53:53;2.75;;;2.55;;
9461;SDS011;4769;42.660;23.262;2023-04-30T14:56:19;3.65;;;2.58;;
9461;SDS011;4769;42.660;23.262;2023-04-30T14:58:44;2.60;;;2.40;;
9461;SDS011;4769;42.660;23.262;2023-04-30T15:01:13;3.70;;;2.47;;
9461;SDS011;4769;42.660;23.262;2023-04-30T15:03:38;2.70;;;2.50;;
9461;SDS011;4769;42.660;23.262;2023-04-30T15:06:04;2.65;;;2.45;;
9461;SDS011;4769;42.660;23.262;2023-04-30T15:08:30;3.75;;;2.72;;
9461;SDS011;4769;42.660;23.262;2023-04-30T15:10:56;3.47;;;2.72;;
9461;SDS011;4769;42.660;23.262;2023-04-30T15:13:21;3.17;;;2.60;;